Farmer, Washington
Current Conditions -  °F | °C
As of 6:53 AM on Friday 31 Oct 2014 (Local Time) from KEPH Reporting Station
Light Rain Light Rain  
Wind Chill: 49°   Ceiling: 8000
Heat Index: 49°   Visibility: 5mi
Dew Point: 48°   Wind: 0mph
Humidity: 97%   Direction: NA
Pressure: 29.73"   Gusts: NA
Location:  47.6257°N, 119.744°W
Report Text: KEPH 311353Z AUTO 00000KT 5SM -RA BR FEW031 OVC080 09/09 A2973 RMK AO2 SLP068 P0001 T00940089
Loading
Personal Weather Stations






























Interactive Weather Map
Tropical Storm Tracking
New forecast layout! Learn more

10-Day Weather Forecast

Advertisements
Track Severe Weather on mobile